Time;durP1;ratioP1;P1;durP2;ratioP2;P2;SDS_P1;SDS_P2;PMS_P1;PMS_P2;Temp;Humidity;BMP_temperature;BMP_pressure;BME280_temperature;BME280_humidity;BME280_pressure;Samples;Min_cycle;Max_cycle;Signal;HPM_P1;HPM_P2
2022/09/03 00:09:40;;;;;;;1.30;1.20;;;;;;;11.13;56.16;99944.77;431029;1270;148874;-60
2022/09/03 00:19:52;;;;;;;1.90;1.00;;;;;;;11.09;56.33;99944.64;430706;1270;142707;-60
2022/09/03 00:30:04;;;;;;;2.60;1.10;;;;;;;10.99;56.21;99946.10;431213;1271;147095;-60
2022/09/03 00:40:27;;;;;;;2.50;1.40;;;;;;;11.00;56.39;99950.44;431086;1271;147542;-59
2022/09/03 00:50:46;;;;;;;2.70;1.20;;;;;;;10.99;56.45;99945.77;430570;1271;144392;-59
2022/09/03 01:00:53;;;;;;;2.70;1.80;;;;;;;10.90;56.53;99945.09;431160;1270;142247;-60
2022/09/03 01:11:09;;;;;;;2.50;1.80;;;;;;;10.78;56.77;99949.84;429972;1272;143518;-59
2022/09/03 01:21:40;;;;;;;3.70;1.40;;;;;;;10.62;57.35;99946.36;431152;1271;202093;-58
2022/09/03 01:31:58;;;;;;;1.90;1.40;;;;;;;10.56;57.62;99933.75;431346;1271;141255;-60
2022/09/03 01:42:16;;;;;;;2.90;1.50;;;;;;;10.48;57.62;99933.71;431619;1271;143492;-59
2022/09/03 01:52:40;;;;;;;2.00;1.60;;;;;;;10.35;57.70;99933.73;431038;1271;141809;-59
2022/09/03 02:02:49;;;;;;;3.60;1.40;;;;;;;10.26;57.92;99929.65;430145;1271;145546;-60
2022/09/03 02:12:59;;;;;;;3.80;1.70;;;;;;;10.24;57.99;99923.99;431199;1271;150403;-59
2022/09/03 02:23:05;;;;;;;4.60;1.00;;;;;;;10.13;57.96;99924.25;430306;1271;141831;-59
2022/09/03 02:33:12;;;;;;;3.30;1.50;;;;;;;9.99;58.45;99928.39;430919;1271;197839;-61
2022/09/03 02:43:23;;;;;;;3.40;1.70;;;;;;;9.84;58.96;99928.48;431132;1270;142408;-59
2022/09/03 02:53:30;;;;;;;4.20;2.20;;;;;;;9.71;59.20;99932.53;430112;1271;146616;-58
2022/09/03 03:03:36;;;;;;;3.10;1.80;;;;;;;9.64;59.69;99931.15;431393;1271;200310;-59
2022/09/03 03:13:42;;;;;;;2.10;1.90;;;;;;;9.63;59.92;99928.08;430826;1271;142501;-61
2022/09/03 03:23:48;;;;;;;2.50;1.70;;;;;;;9.56;60.33;99926.70;431033;1269;147803;-59
2022/09/03 03:33:57;;;;;;;3.00;1.70;;;;;;;9.51;60.39;99930.80;430764;1271;143384;-59
2022/09/03 03:44:04;;;;;;;3.00;2.30;;;;;;;9.58;60.35;99938.30;430255;1271;146604;-59
2022/09/03 03:54:10;;;;;;;3.40;2.50;;;;;;;9.57;60.26;99942.36;430880;1270;148926;-59
2022/09/03 04:04:22;;;;;;;3.40;1.50;;;;;;;9.53;60.38;99939.96;430726;1271;148175;-59
2022/09/03 04:14:28;;;;;;;3.90;1.80;;;;;;;9.51;60.58;99948.29;430159;1271;148302;-58
2022/09/03 04:24:34;;;;;;;2.50;2.10;;;;;;;9.53;60.65;99957.45;430803;1271;142680;-59
2022/09/03 04:34:40;;;;;;;4.10;1.80;;;;;;;9.66;60.77;99957.27;430960;1271;148020;-61
2022/09/03 04:44:46;;;;;;;3.90;2.00;;;;;;;9.89;60.28;99956.58;430215;1271;147512;-59
2022/09/03 04:54:51;;;;;;;1.90;1.60;;;;;;;10.12;60.03;99949.36;431428;1271;143148;-58
2022/09/03 05:04:57;;;;;;;2.80;2.20;;;;;;;10.45;59.67;99952.39;430532;1271;143237;-59
2022/09/03 05:15:04;;;;;;;3.00;1.70;;;;;;;10.98;59.04;99954.41;431442;1270;148703;-59
2022/09/03 05:25:10;;;;;;;3.00;2.00;;;;;;;13.80;56.42;99953.13;444539;1271;143482;-59
2022/09/03 05:35:16;;;;;;;2.80;1.60;;;;;;;22.58;47.20;99943.86;446679;1271;142831;-60
2022/09/03 05:45:22;;;;;;;3.90;1.30;;;;;;;28.46;37.91;99944.16;441832;1271;141868;-60
2022/09/03 05:55:28;;;;;;;7.40;2.60;;;;;;;32.05;32.00;99940.80;431239;1271;147491;-58
2022/09/03 06:05:34;;;;;;;2.50;2.00;;;;;;;34.86;26.84;99938.48;430082;1271;200898;-58
2022/09/03 06:15:40;;;;;;;3.30;1.60;;;;;;;36.09;25.01;99947.43;430601;1271;187521;-59
2022/09/03 06:25:45;;;;;;;2.50;1.70;;;;;;;38.88;22.25;99946.83;431234;1271;143761;-59
2022/09/03 06:35:58;;;;;;;3.00;1.30;;;;;;;40.19;20.04;99945.63;430148;1271;1630490;-58
2022/09/03 06:46:05;;;;;;;1.90;1.20;;;;;;;40.36;19.04;99946.14;430922;1271;149572;-59
2022/09/03 06:56:13;;;;;;;3.40;1.70;;;;;;;42.80;17.95;99944.72;430196;1271;146678;-60
2022/09/03 07:06:20;;;;;;;3.30;1.40;;;;;;;43.26;16.39;99939.11;431055;1271;142537;-60
2022/09/03 07:16:28;;;;;;;1.70;1.20;;;;;;;44.09;15.51;99932.91;431121;1271;145211;-59
2022/09/03 07:26:36;;;;;;;1.00;1.00;;;;;;;42.81;14.52;99937.58;430175;1271;147792;-61
2022/09/03 07:36:45;;;;;;;1.80;1.30;;;;;;;42.42;14.19;99938.51;434908;1270;142378;-59
2022/09/03 07:46:53;;;;;;;3.20;1.50;;;;;;;43.56;13.89;99942.59;429527;1272;146294;-60
2022/09/03 07:56:59;;;;;;;1.30;1.20;;;;;;;43.47;13.40;99942.43;431728;1270;147570;-58
2022/09/03 08:07:04;;;;;;;3.80;1.80;;;;;;;43.19;12.85;99951.38;431218;1271;146470;-58
2022/09/03 08:17:11;;;;;;;2.30;1.30;;;;;;;42.50;13.21;99946.80;429718;1271;146130;-60
2022/09/03 08:27:24;;;;;;;1.20;1.20;;;;;;;42.75;12.90;99944.57;431239;1271;140895;-59
2022/09/03 08:37:31;;;;;;;1.00;1.00;;;;;;;40.85;12.79;99949.04;431740;1271;145327;-59
2022/09/03 08:47:43;;;;;;;3.10;1.80;;;;;;;31.81;16.48;99949.18;429568;1271;193463;-59
2022/09/03 08:57:51;;;;;;;4.00;1.80;;;;;;;26.51;20.54;99963.13;431290;1271;147387;-58
2022/09/03 09:08:11;;;;;;;2.40;1.60;;;;;;;24.41;23.06;99958.77;430585;1271;146076;-59
2022/09/03 09:18:23;;;;;;;3.50;1.90;;;;;;;23.23;24.82;99965.42;430553;1270;148169;-58
2022/09/03 09:28:34;;;;;;;2.60;2.00;;;;;;;22.56;26.26;99962.23;430572;1271;140908;-60
2022/09/03 09:38:41;;;;;;;2.10;1.50;;;;;;;22.03;27.48;99955.52;430428;1271;142849;-57
2022/09/03 09:48:52;;;;;;;3.80;1.70;;;;;;;21.60;28.66;99951.46;430621;1271;197984;-59
2022/09/03 09:59:07;;;;;;;2.80;1.60;;;;;;;21.40;29.29;99943.77;429951;1271;142152;-56
2022/09/03 10:09:15;;;;;;;3.40;1.70;;;;;;;21.09;30.11;99938.08;431232;1271;142688;-59
2022/09/03 10:19:23;;;;;;;;;;;;;;;20.96;30.47;99938.11;430414;1271;144776;-56
2022/09/03 10:29:29;;;;;;;2.50;1.10;;;;;;;20.56;31.11;99929.10;430437;1271;130686;-59
2022/09/03 10:39:49;;;;;;;4.50;1.60;;;;;;;20.30;31.43;99926.70;430849;1271;145578;-60
2022/09/03 10:50:03;;;;;;;3.40;1.20;;;;;;;20.27;31.71;99919.73;430425;1271;144746;-59
2022/09/03 11:00:11;;;;;;;3.20;1.50;;;;;;;20.05;32.15;99915.85;432977;1271;140448;-58
2022/09/03 11:10:23;;;;;;;3.60;2.00;;;;;;;19.86;32.37;99911.12;431455;1271;142979;-57
2022/09/03 11:20:36;;;;;;;1.60;1.40;;;;;;;19.72;32.44;99898.56;430384;1271;142841;-60
2022/09/03 11:30:56;;;;;;;2.10;1.50;;;;;;;19.71;32.77;99887.52;431464;1271;199540;-59
2022/09/03 11:41:14;;;;;;;3.50;1.50;;;;;;;19.86;33.01;99884.64;429934;1271;144872;-58
2022/09/03 11:51:36;;;;;;;2.20;1.10;;;;;;;20.04;33.28;99877.60;430961;1271;142020;-58
2022/09/03 12:01:51;;;;;;;1.80;1.30;;;;;;;20.14;32.61;99875.38;432334;1271;144680;-56
2022/09/03 12:12:09;;;;;;;1.90;1.60;;;;;;;20.22;32.01;99868.18;431167;1271;143263;-60
2022/09/03 12:22:19;;;;;;;4.10;1.60;;;;;;;20.25;32.19;99863.20;430872;1271;143271;-59
2022/09/03 12:32:26;;;;;;;3.10;1.70;;;;;;;20.07;32.04;99858.11;430865;1271;143224;-60
2022/09/03 12:42:33;;;;;;;3.40;2.10;;;;;;;20.23;31.96;99845.80;430816;1271;141937;-59
2022/09/03 12:52:43;;;;;;;2.80;2.20;;;;;;;20.36;31.86;99833.86;431889;1271;144464;-59
2022/09/03 13:02:55;;;;;;;2.20;1.50;;;;;;;20.31;31.59;99837.59;431350;1271;142328;-58
2022/09/03 13:13:07;;;;;;;2.90;2.00;;;;;;;20.32;31.97;99831.04;431155;1271;144636;-60
2022/09/03 13:23:25;;;;;;;5.50;2.50;;;;;;;20.58;32.05;99822.09;430348;1271;143233;-59
2022/09/03 13:33:37;;;;;;;3.20;2.30;;;;;;;20.56;32.58;99819.58;430613;1271;142423;-59
2022/09/03 13:43:47;;;;;;;4.50;3.10;;;;;;;20.58;33.42;99822.45;430447;1271;143070;-59
2022/09/03 13:54:05;;;;;;;8.30;3.30;;;;;;;20.66;33.73;99814.81;430191;1271;141288;-59
2022/09/03 14:04:21;;;;;;;5.60;3.60;;;;;;;21.11;33.32;99815.59;434942;1271;141232;-59
2022/09/03 14:14:41;;;;;;;5.50;3.40;;;;;;;20.65;33.38;99814.56;430024;1271;142506;-61
2022/09/03 14:24:52;;;;;;;4.60;2.80;;;;;;;20.52;33.72;99807.39;430599;1271;142088;-59
2022/09/03 14:35:32;;;;;;;7.10;3.50;;;;;;;20.52;33.81;99812.23;430177;1271;144302;-58
2022/09/03 14:45:58;;;;;;;3.70;3.30;;;;;;;20.41;33.56;99809.72;430323;1271;141676;-61
2022/09/03 14:56:25;;;;;;;5.20;3.30;;;;;;;20.24;34.02;99805.41;429444;1271;162909;-59
2022/09/03 15:06:52;;;;;;;4.80;3.90;;;;;;;20.11;34.72;99804.73;430371;1271;143172;-58
2022/09/03 15:17:20;;;;;;;5.50;3.80;;;;;;;19.88;35.32;99800.46;430215;1271;147407;-60
2022/09/03 15:27:59;;;;;;;4.00;3.00;;;;;;;19.72;35.43;99795.92;430281;1271;141849;-58
2022/09/03 15:38:10;;;;;;;5.10;3.00;;;;;;;19.45;35.82;99800.20;429799;1271;142106;-59
2022/09/03 15:48:26;;;;;;;5.00;2.90;;;;;;;19.08;36.35;99803.79;430557;1271;142144;-58
2022/09/03 15:58:37;;;;;;;4.80;2.70;;;;;;;18.87;36.78;99802.36;430225;1271;142734;-58
2022/09/03 16:08:49;;;;;;;3.80;3.20;;;;;;;18.95;36.71;99799.12;429696;1271;143475;-60
2022/09/03 16:19:05;;;;;;;2.90;2.20;;;;;;;18.78;36.78;99799.43;430680;1271;146525;-59
2022/09/03 16:29:14;;;;;;;2.20;1.80;;;;;;;18.53;36.70;99806.46;430197;1271;164400;-59
2022/09/03 16:39:33;;;;;;;2.40;1.80;;;;;;;18.25;37.06;99806.53;430437;1271;146613;-56
2022/09/03 16:49:53;;;;;;;6.60;2.50;;;;;;;18.06;37.54;99809.48;430355;1271;199323;-60
2022/09/03 17:00:10;;;;;;;6.30;2.90;;;;;;;17.97;37.87;99809.81;431662;1271;147395;-58
2022/09/03 17:10:27;;;;;;;3.80;2.00;;;;;;;17.77;38.25;99810.72;431031;1271;142348;-61
2022/09/03 17:20:53;;;;;;;3.90;1.90;;;;;;;17.48;38.61;99807.83;429878;1271;147094;-59
2022/09/03 17:31:08;;;;;;;2.30;2.10;;;;;;;17.13;39.30;99808.20;431753;1271;142511;-58
2022/09/03 17:41:25;;;;;;;2.80;2.30;;;;;;;16.75;40.23;99815.19;429968;1272;147024;-58
2022/09/03 17:51:44;;;;;;;3.60;2.10;;;;;;;16.43;40.85;99818.98;447206;1271;144396;-59
2022/09/03 18:02:00;;;;;;;3.80;2.30;;;;;;;16.23;41.04;99824.65;434490;1270;162573;-60
2022/09/03 18:12:15;;;;;;;1.80;1.60;;;;;;;16.11;41.02;99824.65;436122;1270;147677;-57
2022/09/03 20:17:59;;;;;;;5.40;2.40;;;;;;;15.64;40.62;99860.51;441554;1270;146877;-60
2022/09/03 20:28:18;;;;;;;5.40;2.50;;;;;;;15.52;40.80;99868.23;447598;1271;142969;-60
2022/09/03 20:38:56;;;;;;;4.10;2.70;;;;;;;15.48;40.80;99876.66;446907;1271;143843;-60
2022/09/03 20:49:11;;;;;;;6.20;3.50;;;;;;;15.42;41.05;99882.11;447659;1271;142170;-60
2022/09/03 20:59:29;;;;;;;5.10;3.30;;;;;;;15.22;41.52;99886.08;446879;1270;143384;-60
2022/09/03 21:09:45;;;;;;;6.90;4.40;;;;;;;15.02;42.10;99890.45;447462;1271;142647;-60
2022/09/03 21:20:08;;;;;;;4.70;3.40;;;;;;;14.84;42.64;99902.63;446749;1271;143690;-60
2022/09/03 21:30:17;;;;;;;5.60;3.70;;;;;;;14.72;43.62;99908.59;447622;1271;141582;-60
2022/09/03 21:40:27;;;;;;;5.90;3.10;;;;;;;14.59;44.27;99904.43;447222;1271;144824;-59
2022/09/03 21:50:52;;;;;;;4.50;3.30;;;;;;;14.33;45.19;99911.30;446873;1270;143245;-60
2022/09/03 22:01:05;;;;;;;6.50;3.60;;;;;;;14.07;45.95;99917.13;435831;1271;146650;-59
2022/09/03 22:11:18;;;;;;;10.10;5.00;;;;;;;13.87;46.72;99923.43;434418;1271;142277;-59
2022/09/03 22:21:31;;;;;;;7.30;4.00;;;;;;;13.64;47.41;99930.02;447247;1271;144935;-59
2022/09/03 22:31:49;;;;;;;5.60;4.30;;;;;;;13.43;48.28;99937.30;444226;1272;141628;-59
2022/09/03 22:42:09;;;;;;;6.70;4.40;;;;;;;13.30;48.98;99945.05;433005;1271;151584;-60
2022/09/03 22:52:28;;;;;;;6.00;4.20;;;;;;;13.26;49.63;99956.19;447497;1271;141228;-59
2022/09/03 23:02:34;;;;;;;7.80;4.50;;;;;;;13.28;50.73;99953.05;446665;1270;144842;-59
2022/09/03 23:12:44;;;;;;;6.10;4.80;;;;;;;13.23;51.28;99959.92;447564;1271;142257;-59
2022/09/03 23:22:59;;;;;;;10.40;5.00;;;;;;;13.20;51.99;99966.30;446700;1270;161803;-60
2022/09/03 23:33:05;;;;;;;9.00;6.40;;;;;;;13.13;52.88;99959.52;447329;1271;186717;-59
2022/09/03 23:43:37;;;;;;;6.50;4.10;;;;;;;13.16;53.25;99965.34;447382;1271;142610;-59
2022/09/03 23:53:52;;;;;;;6.20;4.80;;;;;;;13.12;53.64;99965.40;446635;1271;143438;-61
